Time;durP1;ratioP1;P1;durP2;ratioP2;P2;SDS_P1;SDS_P2;PMS_P1;PMS_P2;Temp;Humidity;BMP_temperature;BMP_pressure;BME280_temperature;BME280_humidity;BME280_pressure;Samples;Min_cycle;Max_cycle;Signal;HPM_P1;HPM_P2
2022/05/18 08:07:21;;;;;;;11.00;6.28;;;29.90;99.90;;;;;;5196396;24;19929;-92
2022/05/18 08:15:30;;;;;;;10.45;6.88;;;28.90;99.90;;;;;;4786489;30;20064;-92
2022/05/18 08:17:59;;;;;;;12.02;7.50;;;29.70;99.90;;;;;;4791924;29;20035;-88
2022/05/18 08:20:26;;;;;;;10.95;6.90;;;29.60;99.90;;;;;;4792941;30;20039;-90
2022/05/18 08:22:52;;;;;;;12.65;6.57;;;29.00;99.90;;;;;;4763745;30;20132;-92
2022/05/18 08:25:19;;;;;;;11.35;7.10;;;28.00;99.90;;;;;;4763637;30;20152;-91
2022/05/18 08:27:48;;;;;;;11.18;6.75;;;27.30;99.90;;;;;;4793675;30;20038;-92
2022/05/18 08:30:18;;;;;;;13.85;6.22;;;27.80;99.90;;;;;;4779557;30;20131;-92
2022/05/18 08:32:46;;;;;;;12.23;6.38;;;28.60;99.90;;;;;;4793739;29;20064;-91
2022/05/18 08:35:14;;;;;;;13.23;6.10;;;28.80;99.90;;;;;;4797291;29;20039;-90
2022/05/18 08:37:47;;;;;;;10.57;6.63;;;29.50;99.90;;;;;;4798061;30;20041;-90
2022/05/18 08:40:30;;;;;;;11.70;6.70;;;28.70;99.90;;;;;;4777119;29;20492;-90
2022/05/18 08:43:00;;;;;;;12.65;6.55;;;27.80;99.90;;;;;;4813066;29;20038;-89
2022/05/18 08:45:38;;;;;;;12.77;6.38;;;27.80;99.90;;;;;;4814157;29;20039;-91
2022/05/18 08:48:15;;;;;;;9.52;7.25;;;28.30;99.90;;;;;;4815089;29;20042;-90
2022/05/18 08:50:41;;;;;;;11.98;6.47;;;28.50;99.90;;;;;;4812455;29;20122;-91
2022/05/18 08:53:38;;;;;;;15.32;6.70;;;28.60;99.90;;;;;;4813434;29;20038;-90
2022/05/18 08:56:23;;;;;;;12.18;7.22;;;28.50;99.90;;;;;;4801325;29;20404;-90
2022/05/18 08:58:53;;;;;;;11.18;5.82;;;27.80;99.90;;;;;;4814242;29;20038;-90
2022/05/18 09:01:25;;;;;;;10.15;5.93;;;27.80;99.90;;;;;;4813770;29;20039;-92
2022/05/18 09:04:01;;;;;;;13.73;6.13;;;28.30;99.90;;;;;;4812866;29;20519;-88
2022/05/18 09:06:56;;;;;;;14.57;6.30;;;28.00;99.90;;;;;;4814802;29;20056;-92
2022/05/18 09:12:12;;;;;;;9.18;5.55;;;27.20;99.90;;;;;;4813584;29;19913;-89
2022/05/18 09:14:43;;;;;;;11.38;6.20;;;27.50;99.90;;;;;;4812020;29;20034;-91
2022/05/18 09:17:23;;;;;;;9.50;5.57;;;27.70;99.90;;;;;;4814287;29;20058;-90
2022/05/18 09:20:16;;;;;;;11.63;5.20;;;27.40;99.90;;;;;;4783298;30;20048;-89
2022/05/18 09:23:03;;;;;;;13.93;5.75;;;27.50;99.90;;;;;;4750334;30;20123;-90
2022/05/18 09:25:53;;;;;;;16.10;6.18;;;27.50;99.90;;;;;;4781967;30;20044;-88
2022/05/18 09:28:33;;;;;;;11.30;5.60;;;27.10;99.90;;;;;;4745935;30;20032;-89
2022/05/18 09:31:21;;;;;;;18.67;5.82;;;26.90;99.90;;;;;;4757293;30;20044;-90
2022/05/18 09:34:08;;;;;;;11.07;5.40;;;26.80;99.90;;;;;;4771619;30;20079;-89
2022/05/18 09:37:04;;;;;;;9.88;4.65;;;26.50;99.90;;;;;;4742270;30;20048;-90
2022/05/18 09:39:43;;;;;;;6.50;4.17;;;26.90;99.90;;;;;;4771396;30;20051;-88
2022/05/18 09:42:17;;;;;;;9.48;4.53;;;26.60;99.90;;;;;;4742449;30;20185;-89
2022/05/18 09:44:50;;;;;;;11.15;4.57;;;26.70;99.90;;;;;;4742298;30;20047;-89
2022/05/18 09:47:21;;;;;;;10.32;5.30;;;26.50;99.90;;;;;;4772081;30;20368;-88
2022/05/18 09:49:57;;;;;;;12.23;5.35;;;26.40;99.90;;;;;;4744410;30;20410;-87
2022/05/18 09:52:26;;;;;;;10.00;4.90;;;26.00;99.90;;;;;;4789249;30;20505;-89
2022/05/18 09:54:55;;;;;;;9.52;4.13;;;26.10;99.90;;;;;;4789230;30;20061;-87
2022/05/18 09:57:45;;;;;;;11.30;4.40;;;26.20;99.90;;;;;;4809150;29;20137;-90
2022/05/18 10:00:17;;;;;;;7.28;4.00;;;26.30;99.90;;;;;;4810654;29;20038;-88
2022/05/18 10:08:36;;;;;;;9.38;4.30;;;26.50;99.90;;;;;;4792643;29;20043;-88
2022/05/18 10:11:13;;;;;;;11.60;5.10;;;26.50;99.90;;;;;;4807589;29;20485;-88
2022/05/18 10:14:14;;;;;;;11.68;4.93;;;26.50;99.90;;;;;;4807893;29;20050;-90
2022/05/18 10:16:47;;;;;;;9.50;4.90;;;26.20;99.90;;;;;;4806789;29;20447;-88
2022/05/18 10:19:24;;;;;;;8.10;4.28;;;26.20;99.90;;;;;;4807490;29;20069;-92
2022/05/18 10:22:07;;;;;;;9.60;4.50;;;26.40;99.90;;;;;;4816666;29;20047;-90
2022/05/18 10:24:41;;;;;;;10.37;4.53;;;26.50;99.90;;;;;;4819449;29;20046;-88
2022/05/18 10:27:23;;;;;;;10.82;4.60;;;26.30;99.90;;;;;;4820932;29;20264;-87
2022/05/18 10:30:11;;;;;;;8.82;4.70;;;26.20;99.90;;;;;;4821468;29;20050;-87
2022/05/18 10:32:57;;;;;;;9.20;4.10;;;26.30;99.90;;;;;;4806966;29;20043;-88
2022/05/18 10:35:47;;;;;;;9.45;4.28;;;26.50;99.90;;;;;;4819401;29;20045;-88
2022/05/18 10:38:22;;;;;;;9.40;4.82;;;26.60;99.90;;;;;;4798608;29;20042;-87
2022/05/18 10:40:55;;;;;;;15.57;5.75;;;26.50;99.90;;;;;;4809581;29;20066;-87
2022/05/18 11:13:06;;;;;;;9.18;4.05;;;26.40;99.90;;;;;;4761809;30;20056;-93
2022/05/18 11:16:54;;;;;;;8.27;4.20;;;26.90;99.90;;;;;;4755189;30;20089;-93
2022/05/18 11:20:22;;;;;;;10.07;4.78;;;26.90;99.90;;;;;;5026224;24;20055;-92
2022/05/18 11:23:44;;;;;;;10.30;4.57;;;27.00;99.90;;;;;;4792480;30;20134;-93
2022/05/18 11:47:30;;;;;;;8.02;4.53;;;26.60;99.90;;;;;;5043181;24;20055;-93
2022/05/18 11:51:09;;;;;;;6.97;3.88;;;26.90;99.90;;;;;;4880239;24;20059;-92
2022/05/18 11:53:50;;;;;;;7.43;3.90;;;26.90;99.90;;;;;;4789374;24;20064;-93
2022/05/18 11:57:14;;;;;;;7.05;3.85;;;26.90;99.90;;;;;;4804023;30;20055;-93
2022/05/18 12:11:22;;;;;;;;;;;;;;;;;;;;;
2022/05/18 12:15:01;;;;;;;8.40;4.70;;;26.50;99.90;;;;;;4745778;30;20044;-93
2022/05/18 12:30:46;;;;;;;7.72;4.30;;;26.80;99.90;;;;;;4826466;29;20062;-93
2022/05/18 12:34:04;;;;;;;7.57;4.80;;;26.50;99.90;;;;;;4735055;30;20048;-93
2022/05/18 12:37:35;;;;;;;8.18;4.45;;;25.90;99.90;;;;;;4808964;24;20063;-93
2022/05/18 12:50:44;;;;;;;3.60;3.20;;;26.40;99.90;;;;;;4439542;24;13755824;-94
2022/05/18 12:53:19;;;;;;;4.10;3.20;;;26.40;99.90;;;;;;4772696;30;20063;-92
2022/05/18 12:56:29;;;;;;;5.53;3.60;;;26.50;99.90;;;;;;4798206;30;20039;-93
2022/05/18 12:59:00;;;;;;;3.88;3.45;;;26.30;99.90;;;;;;4773760;30;20141;-92
2022/05/18 13:01:35;;;;;;;4.72;4.00;;;26.40;99.90;;;;;;4758560;30;20039;-94
2022/05/18 13:04:28;;;;;;;7.70;4.10;;;26.50;99.90;;;;;;4745113;30;20435;-93
2022/05/18 13:07:35;;;;;;;9.50;3.97;;;26.50;99.90;;;;;;4762765;30;20048;-93
2022/05/18 13:14:27;;;;;;;5.43;3.70;;;26.20;99.90;;;;;;4756753;30;20048;-94
2022/05/18 13:17:13;;;;;;;11.20;3.50;;;26.00;99.90;;;;;;4718601;30;20047;-93
2022/05/18 13:19:53;;;;;;;8.73;3.38;;;26.10;99.90;;;;;;4744381;30;20044;-93
2022/05/18 13:22:20;;;;;;;5.55;3.30;;;26.30;99.90;;;;;;4754951;30;20154;-93
2022/05/18 13:25:08;;;;;;;7.07;3.35;;;26.40;99.90;;;;;;4757084;30;20036;-93
2022/05/18 13:27:45;;;;;;;3.20;2.88;;;26.40;99.90;;;;;;4735495;30;20054;-93
2022/05/18 13:31:08;;;;;;;4.03;2.80;;;26.40;99.90;;;;;;4726839;30;20044;-93
2022/05/18 13:36:45;;;;;;;4.70;3.17;;;26.40;99.90;;;;;;4819853;24;20052;-92
2022/05/18 13:39:20;;;;;;;;;;;26.50;99.90;;;;;;4772808;30;20108;-92
2022/05/18 13:41:57;;;;;;;4.13;2.80;;;26.40;99.90;;;;;;4775716;30;19921;-91
2022/05/18 13:44:38;;;;;;;5.93;2.72;;;26.50;99.90;;;;;;4783841;30;20199;-93
2022/05/18 13:47:47;;;;;;;4.15;2.90;;;26.50;99.90;;;;;;4772061;30;20073;-93
2022/05/18 13:50:42;;;;;;;4.57;2.70;;;26.60;99.90;;;;;;4740872;30;20104;-92
2022/05/18 13:53:33;;;;;;;3.92;2.78;;;26.60;99.90;;;;;;4721510;30;20032;-92
2022/05/18 13:56:09;;;;;;;5.18;3.13;;;26.60;99.90;;;;;;4737210;30;20037;-92
2022/05/18 13:58:41;;;;;;;3.15;2.88;;;26.50;99.90;;;;;;4727018;30;20072;-93
2022/05/18 14:01:17;;;;;;;3.97;3.10;;;26.50;99.90;;;;;;4726781;30;20407;-92
2022/05/18 14:03:46;;;;;;;3.25;2.72;;;26.40;99.90;;;;;;4723599;30;20067;-90
2022/05/18 14:06:23;;;;;;;5.05;2.83;;;26.30;99.90;;;;;;4724281;30;20087;-93
2022/05/18 14:08:59;;;;;;;3.83;2.78;;;26.40;99.90;;;;;;4738812;30;20040;-91
2022/05/18 14:11:28;;;;;;;4.35;3.00;;;26.50;99.90;;;;;;4738613;30;20523;-92
2022/05/18 14:14:00;;;;;;;3.83;2.80;;;26.50;99.90;;;;;;4723225;30;20041;-91
2022/05/18 14:16:35;;;;;;;6.40;2.95;;;26.60;99.90;;;;;;4737113;30;20041;-92
2022/05/18 14:19:07;;;;;;;3.20;2.92;;;26.40;99.90;;;;;;4708576;30;20044;-91
2022/05/18 14:21:37;;;;;;;3.40;3.10;;;26.50;99.90;;;;;;4739006;30;20153;-93
2022/05/18 14:24:12;;;;;;;3.83;3.50;;;26.30;99.90;;;;;;4741560;30;20048;-94
2022/05/18 14:26:52;;;;;;;3.72;3.38;;;26.20;99.90;;;;;;4755292;30;20071;-93
2022/05/18 14:29:42;;;;;;;6.47;3.33;;;26.20;99.90;;;;;;4752746;30;20035;-93
2022/05/18 14:32:20;;;;;;;4.45;3.28;;;26.30;99.90;;;;;;4764595;30;20127;-94
2022/05/18 14:34:53;;;;;;;3.55;3.25;;;26.30;99.90;;;;;;4767556;30;20035;-92
2022/05/18 14:37:30;;;;;;;4.00;3.60;;;26.40;99.90;;;;;;4779910;29;20047;-92
2022/05/18 14:40:00;;;;;;;3.90;3.60;;;26.50;99.90;;;;;;4776055;30;20085;-93
2022/05/18 14:42:30;;;;;;;3.88;3.58;;;26.40;99.90;;;;;;4769592;30;20055;-94
2022/05/18 14:45:27;;;;;;;5.93;3.60;;;26.40;99.90;;;;;;4763851;30;20074;-93
2022/05/18 14:48:06;;;;;;;5.78;3.90;;;26.40;99.90;;;;;;4750616;30;20054;-94
2022/05/18 14:50:42;;;;;;;4.97;3.80;;;26.40;99.90;;;;;;4750858;30;20093;-94
2022/05/18 14:53:13;;;;;;;4.88;3.70;;;26.50;99.90;;;;;;4765253;30;20391;-94
2022/05/18 14:55:41;;;;;;;4.28;3.88;;;26.50;99.90;;;;;;4763582;30;20102;-93
2022/05/18 14:58:12;;;;;;;4.53;4.10;;;26.60;99.90;;;;;;4761948;30;20040;-93
2022/05/18 15:00:44;;;;;;;4.53;4.13;;;26.50;99.90;;;;;;4764977;30;20040;-93
2022/05/18 15:03:14;;;;;;;4.93;4.10;;;26.50;99.90;;;;;;4780097;30;20055;-93
2022/05/18 15:05:45;;;;;;;4.75;4.28;;;26.60;99.90;;;;;;4766879;30;20088;-93
2022/05/18 15:08:25;;;;;;;4.78;4.35;;;26.60;99.90;;;;;;4765852;30;20032;-93
2022/05/18 15:10:59;;;;;;;4.57;4.10;;;26.70;99.90;;;;;;4768660;30;20032;-94
2022/05/18 15:13:32;;;;;;;5.65;4.68;;;26.70;99.90;;;;;;4767557;30;20046;-95
2022/05/18 15:15:59;;;;;;;4.80;4.10;;;26.80;99.90;;;;;;4749827;30;20499;-93
2022/05/18 15:18:34;;;;;;;4.45;4.20;;;26.40;99.90;;;;;;4767675;30;20372;-93
2022/05/18 15:21:41;;;;;;;4.40;4.00;;;26.30;99.90;;;;;;4767701;30;20111;-93
2022/05/18 15:24:17;;;;;;;7.15;4.90;;;26.40;99.90;;;;;;4731821;30;20123;-93
2022/05/18 15:26:49;;;;;;;4.80;4.40;;;26.20;99.90;;;;;;4734202;30;20040;-93
2022/05/18 15:32:37;;;;;;;7.05;4.57;;;26.20;99.90;;;;;;4818360;29;20069;-94
2022/05/18 15:35:25;;;;;;;6.07;5.22;;;26.30;99.90;;;;;;4805817;29;20023;-93
2022/05/18 15:37:56;;;;;;;4.63;4.25;;;26.30;99.90;;;;;;4810255;29;20048;-94
2022/05/18 15:40:24;;;;;;;4.72;4.30;;;26.30;99.90;;;;;;4800629;29;20047;-93
2022/05/18 15:42:50;;;;;;;7.15;4.20;;;26.00;99.90;;;;;;4818953;29;20114;-92
2022/05/18 15:47:58;;;;;;;4.78;4.35;;;26.00;99.90;;;;;;4855512;24;20043;-93
2022/05/18 15:50:44;;;;;;;5.53;4.00;;;25.80;99.90;;;;;;4781513;30;20043;-92
2022/05/18 15:53:29;;;;;;;5.13;4.03;;;25.80;99.90;;;;;;4785832;30;20059;-93
2022/05/18 15:59:14;;;;;;;5.95;3.28;;;25.60;99.90;;;;;;4811702;29;20054;-93
2022/05/18 16:01:44;;;;;;;3.20;2.47;;;25.30;99.90;;;;;;4808406;29;20091;-89
2022/05/18 16:04:10;;;;;;;3.33;2.55;;;25.10;99.90;;;;;;4791812;29;20039;-92
2022/05/18 16:06:37;;;;;;;8.40;3.22;;;25.20;99.90;;;;;;4791758;29;20045;-93
2022/05/18 16:09:24;;;;;;;6.78;3.17;;;25.10;99.90;;;;;;4794791;24;20060;-93
2022/05/18 16:12:06;;;;;;;11.00;2.90;;;25.10;99.90;;;;;;4745460;30;20036;-94
2022/05/18 18:16:30;;;;;;;13.32;3.42;;;22.10;99.90;;;;;;4821728;24;20055;-93
2022/05/18 18:18:57;;;;;;;14.82;3.80;;;22.00;99.90;;;;;;4764953;30;20043;-91
2022/05/18 18:21:25;;;;;;;11.45;3.15;;;22.00;99.90;;;;;;4760694;30;20072;-91
2022/05/18 18:23:53;;;;;;;15.10;3.65;;;22.00;99.90;;;;;;4774965;30;20066;-93
2022/05/18 18:26:26;;;;;;;9.00;2.92;;;22.00;99.90;;;;;;4757681;30;20031;-90
2022/05/18 18:28:59;;;;;;;10.47;3.03;;;21.90;99.90;;;;;;4774782;30;20032;-92
2022/05/18 18:31:27;;;;;;;10.98;3.63;;;21.90;99.90;;;;;;4775254;30;20519;-92
2022/05/18 18:33:55;;;;;;;7.25;2.50;;;21.90;99.90;;;;;;4774313;30;20074;-92
2022/05/18 18:36:34;;;;;;;9.10;2.67;;;21.90;99.90;;;;;;4755581;30;20470;-91
2022/05/18 18:39:02;;;;;;;12.13;3.08;;;21.80;99.90;;;;;;4771404;30;20073;-93
2022/05/18 18:41:30;;;;;;;5.70;2.33;;;21.80;99.90;;;;;;4772340;30;20115;-92
2022/05/18 18:43:57;;;;;;;6.72;2.50;;;21.80;99.90;;;;;;4756982;30;20043;-93
2022/05/18 18:46:33;;;;;;;12.77;2.60;;;21.80;99.90;;;;;;4771306;30;20066;-93
2022/05/18 18:49:09;;;;;;;16.83;2.80;;;21.80;99.90;;;;;;4771742;30;20455;-93
2022/05/18 18:54:45;;;;;;;9.35;2.20;;;21.80;99.90;;;;;;4771075;30;20059;-92
2022/05/18 18:57:17;;;;;;;7.10;2.20;;;21.70;99.90;;;;;;4771176;30;20032;-91
2022/05/18 18:59:45;;;;;;;6.28;1.98;;;21.70;99.90;;;;;;4770948;30;20093;-92
2022/05/18 19:02:12;;;;;;;7.80;2.45;;;21.70;99.90;;;;;;4770722;30;20059;-92
2022/05/18 19:04:39;;;;;;;9.75;2.33;;;21.70;99.90;;;;;;4771044;30;20469;-93
2022/05/18 19:07:08;;;;;;;6.53;2.30;;;21.70;99.90;;;;;;4756168;30;20040;-92
2022/05/18 19:09:39;;;;;;;7.53;1.95;;;21.70;99.90;;;;;;4771300;30;20044;-93
2022/05/18 19:12:08;;;;;;;3.75;1.70;;;21.60;99.90;;;;;;4771055;30;20501;-91
2022/05/18 19:14:35;;;;;;;6.25;2.10;;;21.60;99.90;;;;;;4770887;30;20183;-94
2022/05/18 19:17:02;;;;;;;8.40;1.90;;;21.60;99.90;;;;;;4770960;30;20036;-91
2022/05/18 19:19:29;;;;;;;6.68;2.70;;;21.60;99.90;;;;;;4756061;30;20082;-93
2022/05/18 19:21:57;;;;;;;7.05;2.58;;;21.60;99.90;;;;;;4772231;30;20080;-93
2022/05/18 19:24:24;;;;;;;8.98;2.33;;;21.60;99.90;;;;;;4771028;30;20036;-91
2022/05/18 19:26:52;;;;;;;6.65;2.28;;;21.60;99.90;;;;;;4770838;30;20032;-93
2022/05/18 19:29:23;;;;;;;5.40;1.70;;;21.60;99.90;;;;;;4756463;30;20032;-90
2022/05/18 19:31:49;;;;;;;4.68;1.85;;;21.50;99.90;;;;;;4770471;30;20478;-90
2022/05/18 19:34:17;;;;;;;5.95;2.00;;;21.60;99.90;;;;;;4771102;30;20031;-93
2022/05/18 19:36:44;;;;;;;5.82;2.05;;;21.60;99.90;;;;;;4770869;30;20116;-93
2022/05/18 19:39:10;;;;;;;12.60;2.92;;;21.60;99.90;;;;;;4770264;30;20046;-91
2022/05/18 19:41:40;;;;;;;6.80;1.67;;;21.60;99.90;;;;;;4770733;30;20494;-94
2022/05/18 19:44:07;;;;;;;7.20;2.30;;;21.60;99.90;;;;;;4770939;30;20062;-91
2022/05/18 19:46:34;;;;;;;6.07;1.80;;;21.60;99.90;;;;;;4772207;30;20059;-94
2022/05/18 19:49:01;;;;;;;5.63;1.95;;;21.60;99.90;;;;;;4775770;30;20042;-93
2022/05/18 19:51:30;;;;;;;4.50;2.13;;;21.60;99.90;;;;;;4772296;30;20032;-95
2022/05/18 19:53:57;;;;;;;6.40;1.98;;;21.60;99.90;;;;;;4772655;30;20035;-92
2022/05/18 19:56:26;;;;;;;9.48;2.60;;;21.60;99.90;;;;;;4770654;30;20024;-93
2022/05/18 19:58:53;;;;;;;4.75;2.00;;;21.60;99.90;;;;;;4772548;30;20047;-92
2022/05/18 20:01:19;;;;;;;8.80;2.28;;;21.60;99.90;;;;;;4771210;30;20032;-92
2022/05/18 20:03:46;;;;;;;5.25;1.67;;;21.50;99.90;;;;;;4771827;30;20421;-91
2022/05/18 20:06:12;;;;;;;8.00;1.80;;;21.50;99.90;;;;;;4770215;30;20028;-93
2022/05/18 20:08:48;;;;;;;7.38;1.88;;;21.50;99.90;;;;;;4774724;30;20020;-94
2022/05/18 20:11:14;;;;;;;6.15;2.10;;;21.50;99.90;;;;;;4784229;24;20074;-91
2022/05/18 20:13:41;;;;;;;5.03;1.88;;;21.50;99.90;;;;;;4776803;29;20047;-91
2022/05/18 20:16:09;;;;;;;5.55;1.98;;;21.40;99.90;;;;;;4776344;29;20035;-91
2022/05/18 20:18:36;;;;;;;10.02;2.80;;;21.50;99.90;;;;;;4777683;29;20046;-91
2022/05/18 20:21:06;;;;;;;5.93;2.25;;;21.50;99.90;;;;;;4792938;29;20035;-90
2022/05/18 20:23:39;;;;;;;6.22;1.88;;;21.40;99.90;;;;;;4776327;29;20103;-90
2022/05/18 20:26:21;;;;;;;4.80;1.70;;;21.40;99.90;;;;;;4776296;29;20100;-92
2022/05/18 20:28:48;;;;;;;7.30;2.47;;;21.40;99.90;;;;;;4790928;29;20039;-92
2022/05/18 20:31:15;;;;;;;5.10;2.10;;;21.40;99.90;;;;;;4791038;29;20034;-90
2022/05/18 20:33:41;;;;;;;8.50;2.17;;;21.30;99.90;;;;;;4775950;29;20125;-91
2022/05/18 20:36:08;;;;;;;7.32;2.08;;;21.30;99.90;;;;;;4790573;29;20027;-91
2022/05/18 20:38:38;;;;;;;7.40;2.60;;;21.30;99.90;;;;;;4791126;29;20047;-89
2022/05/18 20:41:05;;;;;;;10.00;2.15;;;21.20;99.90;;;;;;4791825;29;20096;-89
2022/05/18 20:43:31;;;;;;;8.98;2.40;;;21.20;99.90;;;;;;4792402;29;20038;-92
2022/05/18 20:45:58;;;;;;;14.40;2.33;;;21.20;99.90;;;;;;4792394;29;20027;-91
2022/05/18 20:48:28;;;;;;;11.02;2.50;;;21.10;99.90;;;;;;4791919;29;20031;-90
2022/05/18 20:50:55;;;;;;;9.70;2.05;;;21.10;99.90;;;;;;4795109;29;20088;-90
2022/05/18 20:53:22;;;;;;;11.00;2.83;;;21.10;99.90;;;;;;4794064;29;20031;-89
2022/05/18 20:55:55;;;;;;;4.85;1.42;;;21.00;99.90;;;;;;4795938;29;20059;-90
2022/05/18 20:58:23;;;;;;;11.45;2.33;;;21.00;99.90;;;;;;4794195;29;20043;-90
2022/05/18 21:00:50;;;;;;;9.00;2.28;;;20.90;99.90;;;;;;4795764;29;20439;-91
2022/05/18 21:03:17;;;;;;;8.23;1.90;;;20.90;99.90;;;;;;4778751;29;20061;-88
2022/05/18 21:05:44;;;;;;;9.13;1.98;;;20.90;99.90;;;;;;4793639;29;20034;-91
2022/05/18 21:08:12;;;;;;;8.45;1.98;;;20.90;99.90;;;;;;4793423;29;20481;-91
2022/05/18 21:10:43;;;;;;;5.45;2.03;;;20.90;99.90;;;;;;4793440;29;20039;-92
2022/05/18 21:13:13;;;;;;;12.52;2.80;;;20.80;99.90;;;;;;4793850;29;20039;-91
2022/05/18 21:15:40;;;;;;;12.57;2.53;;;20.80;99.90;;;;;;4778583;29;20042;-93
2022/05/18 21:18:08;;;;;;;11.98;2.47;;;20.80;99.90;;;;;;4793590;29;20103;-91
2022/05/18 21:20:36;;;;;;;14.23;2.88;;;20.70;99.90;;;;;;4793456;29;20061;-92
2022/05/18 21:23:04;;;;;;;11.82;2.38;;;20.70;99.90;;;;;;4793424;29;20035;-92
2022/05/18 21:25:31;;;;;;;10.77;2.20;;;20.60;99.90;;;;;;4792995;29;20087;-89
2022/05/18 21:28:01;;;;;;;14.80;3.30;;;20.60;99.90;;;;;;4793126;29;20122;-92
2022/05/18 21:30:28;;;;;;;12.80;2.70;;;20.60;99.90;;;;;;4793363;29;20196;-92
2022/05/18 21:32:55;;;;;;;13.23;2.55;;;20.50;99.90;;;;;;4793531;29;20123;-93
2022/05/18 21:35:26;;;;;;;19.23;3.00;;;20.50;99.90;;;;;;4793257;29;20039;-90
2022/05/18 21:37:56;;;;;;;8.60;2.38;;;20.40;99.90;;;;;;4793687;29;20032;-91
2022/05/18 21:40:34;;;;;;;11.88;3.20;;;20.40;99.90;;;;;;4793936;29;20046;-92
2022/05/18 21:43:01;;;;;;;20.58;2.78;;;20.40;99.90;;;;;;4792998;29;20192;-92
2022/05/18 21:45:28;;;;;;;9.98;2.33;;;20.40;99.90;;;;;;4792663;29;20501;-89
2022/05/18 21:47:56;;;;;;;10.02;2.45;;;20.30;99.90;;;;;;4792895;29;20504;-89
2022/05/18 21:50:23;;;;;;;10.23;2.45;;;20.30;99.90;;;;;;4777999;29;20026;-90
2022/05/18 21:52:50;;;;;;;10.63;2.30;;;20.30;99.90;;;;;;4793160;29;20050;-89
2022/05/18 21:55:16;;;;;;;10.55;3.17;;;20.20;99.90;;;;;;4778170;29;20504;-89
2022/05/18 21:57:50;;;;;;;16.33;3.03;;;20.20;99.90;;;;;;4792706;29;20031;-89
2022/05/18 22:00:31;;;;;;;11.55;2.60;;;20.10;99.90;;;;;;4792842;29;20106;-89
2022/05/18 22:03:28;;;;;;;10.95;2.88;;;20.10;99.90;;;;;;4793799;29;20043;-89
2022/05/18 22:05:57;;;;;;;13.57;2.53;;;20.10;99.90;;;;;;4743671;30;20048;-90
2022/05/18 22:08:34;;;;;;;15.05;3.13;;;20.10;99.90;;;;;;4760378;30;20032;-91
2022/05/18 22:11:25;;;;;;;13.60;3.00;;;20.00;99.90;;;;;;4755494;30;20513;-91
2022/05/18 22:13:52;;;;;;;15.10;3.47;;;20.00;99.90;;;;;;4742293;30;20043;-90
2022/05/18 22:16:31;;;;;;;13.68;2.53;;;20.00;99.90;;;;;;4757023;30;20522;-91
2022/05/18 22:19:20;;;;;;;10.05;2.40;;;20.00;99.90;;;;;;4742342;30;20081;-90
2022/05/18 22:21:47;;;;;;;15.88;2.90;;;19.90;99.90;;;;;;4755423;30;20070;-91
2022/05/18 22:24:13;;;;;;;13.65;2.47;;;19.90;99.90;;;;;;4741319;30;20138;-92
2022/05/18 22:26:43;;;;;;;17.63;3.10;;;19.90;99.90;;;;;;4756192;30;20032;-90
2022/05/18 22:29:11;;;;;;;11.63;2.30;;;19.80;99.90;;;;;;4755929;30;20044;-91
2022/05/18 22:31:38;;;;;;;13.68;3.22;;;19.80;99.90;;;;;;4755745;30;20035;-90
2022/05/18 22:34:05;;;;;;;17.45;2.78;;;19.70;99.90;;;;;;4755826;30;20043;-90
2022/05/18 22:36:31;;;;;;;13.95;2.80;;;19.70;99.90;;;;;;4770643;30;20036;-91
2022/05/18 22:38:58;;;;;;;27.55;2.75;;;19.70;99.90;;;;;;4755665;30;20077;-90
2022/05/18 22:41:24;;;;;;;11.18;3.08;;;19.70;99.90;;;;;;4755772;29;20062;-90
2022/05/18 22:43:52;;;;;;;11.50;2.40;;;19.60;99.90;;;;;;4792038;29;20027;-89
2022/05/18 22:46:18;;;;;;;16.88;2.65;;;19.60;99.90;;;;;;4791955;29;20031;-89
2022/05/18 22:48:45;;;;;;;13.88;2.65;;;19.60;99.90;;;;;;4791837;29;20027;-90
2022/05/18 22:51:16;;;;;;;13.20;3.00;;;19.50;99.90;;;;;;4777068;29;20043;-90
2022/05/18 22:53:43;;;;;;;20.88;3.00;;;19.50;99.90;;;;;;4791781;29;20062;-89
2022/05/18 22:56:09;;;;;;;10.20;2.83;;;19.50;99.90;;;;;;4791581;29;20118;-90
2022/05/18 22:58:36;;;;;;;11.70;2.40;;;19.50;99.90;;;;;;4791512;29;20417;-90
2022/05/18 23:01:03;;;;;;;10.60;2.65;;;19.50;99.90;;;;;;4791700;29;20027;-91
2022/05/18 23:03:29;;;;;;;9.02;2.45;;;19.40;99.90;;;;;;4791871;29;20038;-92
2022/05/18 23:05:56;;;;;;;9.88;2.83;;;19.40;99.90;;;;;;4791514;29;20415;-91
2022/05/18 23:08:23;;;;;;;13.75;2.35;;;19.40;99.90;;;;;;4791527;29;20030;-91
2022/05/18 23:10:50;;;;;;;12.93;2.55;;;19.30;99.90;;;;;;4791333;29;20058;-91
2022/05/18 23:13:16;;;;;;;11.05;3.08;;;19.30;99.90;;;;;;4791485;29;20038;-90
2022/05/18 23:15:47;;;;;;;11.85;2.65;;;19.30;99.90;;;;;;4791348;29;20063;-91
2022/05/18 23:18:15;;;;;;;12.60;3.10;;;19.30;99.90;;;;;;4791458;29;20409;-91
2022/05/18 23:20:42;;;;;;;13.07;3.08;;;19.30;99.90;;;;;;4791357;29;20041;-91
2022/05/18 23:25:56;;;;;;;14.85;2.78;;;19.20;99.90;;;;;;4791304;29;20084;-90
2022/05/18 23:28:23;;;;;;;12.15;3.40;;;19.20;99.90;;;;;;4791225;29;20523;-90
2022/05/18 23:30:51;;;;;;;12.38;2.50;;;19.10;99.90;;;;;;4791518;29;20043;-90
2022/05/18 23:33:28;;;;;;;12.57;2.72;;;19.10;99.90;;;;;;4791166;29;20114;-90
2022/05/18 23:36:01;;;;;;;15.75;2.20;;;19.00;99.90;;;;;;4791174;29;20118;-90
2022/05/18 23:38:28;;;;;;;18.98;3.38;;;19.00;99.90;;;;;;4791292;29;20129;-90
2022/05/18 23:40:54;;;;;;;9.52;2.55;;;19.00;99.90;;;;;;4791258;29;20039;-90
2022/05/18 23:43:21;;;;;;;17.13;2.65;;;19.00;99.90;;;;;;4791146;29;20091;-91
2022/05/18 23:45:51;;;;;;;11.80;2.38;;;18.90;99.90;;;;;;4791192;29;20126;-91
2022/05/18 23:48:21;;;;;;;17.08;2.38;;;18.90;99.90;;;;;;4791066;29;20059;-90
2022/05/18 23:53:38;;;;;;;12.73;2.55;;;18.90;99.90;;;;;;4790868;29;20031;-90
2022/05/18 23:56:25;;;;;;;16.33;3.22;;;18.90;99.90;;;;;;4790873;29;20123;-91
2022/05/18 23:58:59;;;;;;;14.15;2.67;;;18.80;99.90;;;;;;4791032;29;20069;-90
